Time;durP1;ratioP1;P1;durP2;ratioP2;P2;SDS_P1;SDS_P2;PMS_P1;PMS_P2;Temp;Humidity;BMP_temperature;BMP_pressure;BME280_temperature;BME280_humidity;BME280_pressure;Samples;Min_cycle;Max_cycle;Signal;HPM_P1;HPM_P2
2023/10/10 00:00:47;;;;;;;;;;;21.10;61.70;;;;;;6259434;28;19909;-69
2023/10/10 00:03:49;;;;;;;;;;;21.10;62.80;;;;;;6265316;28;20623;-69
2023/10/10 00:06:51;;;;;;;;;;;21.00;62.20;;;;;;6282470;28;19904;-70
2023/10/10 00:09:52;;;;;;;;;;;21.10;61.60;;;;;;6239420;28;20290;-68
2023/10/10 00:12:53;;;;;;;;;;;21.10;61.70;;;;;;6275756;28;19919;-69
2023/10/10 00:16:05;;;;;;;;;;;21.10;61.70;;;;;;6274811;28;20005;-67
2023/10/10 00:19:17;;;;;;;;;;;21.10;62.20;;;;;;6245805;28;19987;-69
2023/10/10 00:22:25;;;;;;;;;;;21.10;61.80;;;;;;6252737;28;19931;-69
2023/10/10 00:25:30;;;;;;;;;;;21.10;62.20;;;;;;6243173;28;20454;-67
2023/10/10 00:28:34;;;;;;;;;;;21.10;62.50;;;;;;6245625;28;20638;-68
2023/10/10 00:31:38;;;;;;;;;;;21.00;61.60;;;;;;6252750;28;19908;-68
2023/10/10 00:34:39;;;;;;;;;;;21.10;62.70;;;;;;6270050;28;19905;-67
2023/10/10 00:37:39;;;;;;;;;;;21.00;62.60;;;;;;6242511;28;19904;-69
2023/10/10 00:40:40;;;;;;;;;;;21.00;62.20;;;;;;6258237;28;19921;-67
2023/10/10 00:43:41;;;;;;;;;;;21.00;61.60;;;;;;6257203;28;19919;-68
2023/10/10 00:46:42;;;;;;;;;;;21.10;61.70;;;;;;6268408;28;20331;-69
2023/10/10 00:49:45;;;;;;;;;;;21.00;61.90;;;;;;6273153;28;19904;-69
2023/10/10 00:52:51;;;;;;;;;;;21.00;62.70;;;;;;6242591;28;19908;-68
2023/10/10 00:55:56;;;;;;;;;;;21.00;61.70;;;;;;6274055;28;19904;-69
2023/10/10 00:58:56;;;;;;;;;;;21.00;61.70;;;;;;6266069;28;19905;-69
2023/10/10 01:01:57;;;;;;;;;;;21.00;61.50;;;;;;6263121;28;19916;-69
2023/10/10 01:05:04;;;;;;;;;;;21.00;62.00;;;;;;6274470;28;19908;-69
2023/10/10 01:08:08;;;;;;;;;;;21.00;61.70;;;;;;6253441;28;19909;-69
2023/10/10 01:11:11;;;;;;;;;;;21.00;61.60;;;;;;6255703;28;19928;-68
2023/10/10 01:14:18;;;;;;;;;;;21.10;61.70;;;;;;6286308;28;19905;-70
2023/10/10 01:17:19;;;;;;;;;;;21.00;62.40;;;;;;6259361;28;19908;-69
2023/10/10 01:20:34;;;;;;;;;;;21.00;61.80;;;;;;6281453;28;19950;-69
2023/10/10 01:23:37;;;;;;;;;;;21.10;61.80;;;;;;6280510;28;19959;-69
2023/10/10 01:26:38;;;;;;;;;;;21.10;61.70;;;;;;6272770;28;20004;-70
2023/10/10 01:29:49;;;;;;;;;;;21.00;62.20;;;;;;6268282;28;19991;-67
2023/10/10 01:32:50;;;;;;;;;;;21.00;63.00;;;;;;6271977;28;20552;-68
2023/10/10 01:35:55;;;;;;;;;;;21.00;62.60;;;;;;6233695;28;19909;-69
2023/10/10 01:38:56;;;;;;;;;;;21.00;61.90;;;;;;6250150;28;20382;-68
2023/10/10 01:41:58;;;;;;;;;;;21.00;61.60;;;;;;6255694;28;19928;-68
2023/10/10 01:45:04;;;;;;;;;;;21.00;62.20;;;;;;6248064;28;19913;-69
2023/10/10 01:48:08;;;;;;;;;;;21.00;61.80;;;;;;6237258;28;19916;-70
2023/10/10 01:51:08;;;;;;;;;;;21.00;61.70;;;;;;6247660;28;20261;-67
2023/10/10 01:54:18;;;;;;;;;;;21.00;61.60;;;;;;6243538;28;19928;-67
2023/10/10 01:57:23;;;;;;;;;;;21.00;61.60;;;;;;6245673;28;19908;-70
2023/10/10 02:03:27;;;;;;;;;;;21.00;61.60;;;;;;6239818;28;20256;-69
2023/10/10 02:06:28;;;;;;;;;;;21.10;61.80;;;;;;6253316;28;19943;-70
2023/10/10 02:09:33;;;;;;;;;;;21.00;61.60;;;;;;6238635;28;19967;-70
2023/10/10 02:12:34;;;;;;;;;;;21.00;61.60;;;;;;6237655;28;19927;-68
2023/10/10 02:15:36;;;;;;;;;;;21.00;61.90;;;;;;6248403;28;19905;-68
2023/10/10 02:18:44;;;;;;;;;;;21.00;61.60;;;;;;6239301;28;19960;-68
2023/10/10 02:21:48;;;;;;;;;;;21.00;61.60;;;;;;6243406;28;19952;-68
2023/10/10 02:24:49;;;;;;;;;;;21.00;61.60;;;;;;6253308;28;19905;-68
2023/10/10 02:27:56;;;;;;;;;;;21.00;61.60;;;;;;6250149;28;19905;-70
2023/10/10 02:31:02;;;;;;;;;;;21.00;61.80;;;;;;6237004;28;19957;-68
2023/10/10 02:34:03;;;;;;;;;;;21.00;61.60;;;;;;6243137;28;19999;-69
2023/10/10 02:37:22;;;;;;;;;;;21.00;61.60;;;;;;6250621;28;19909;-69
2023/10/10 02:40:31;;;;;;;;;;;21.00;61.60;;;;;;6249311;28;19913;-70
2023/10/10 02:43:45;;;;;;;;;;;21.00;61.60;;;;;;6255686;28;20039;-68
2023/10/10 02:46:47;;;;;;;;;;;21.00;61.70;;;;;;6255267;28;19988;-69
2023/10/10 02:49:48;;;;;;;;;;;21.00;61.80;;;;;;6252972;28;19940;-69
2023/10/10 02:52:59;;;;;;;;;;;21.00;61.60;;;;;;6267012;28;19904;-69
2023/10/10 02:56:01;;;;;;;;;;;21.00;61.60;;;;;;6234896;28;20438;-69
2023/10/10 02:59:05;;;;;;;;;;;21.00;61.80;;;;;;6246328;28;20390;-68
2023/10/10 03:02:23;;;;;;;;;;;21.00;62.60;;;;;;6266882;28;19913;-67
2023/10/10 03:05:43;;;;;;;;;;;21.00;61.80;;;;;;6246554;28;20332;-67
2023/10/10 03:08:51;;;;;;;;;;;21.00;61.80;;;;;;6272465;28;19909;-67
2023/10/10 03:12:04;;;;;;;;;;;21.00;62.50;;;;;;6280369;28;19923;-67
2023/10/10 03:18:19;;;;;;;;;;;21.00;61.70;;;;;;6258698;28;20003;-69
2023/10/10 03:21:43;;;;;;;;;;;21.00;61.60;;;;;;6264271;28;19909;-68
2023/10/10 03:28:18;;;;;;;;;;;21.00;61.70;;;;;;6263696;28;19905;-69
2023/10/10 03:34:31;;;;;;;;;;;21.00;62.20;;;;;;6276163;28;19956;-68
2023/10/10 03:37:41;;;;;;;;;;;21.00;61.70;;;;;;6268124;28;19909;-69
2023/10/10 05:24:08;;;;;;;;;;;21.10;62.50;;;;;;6266079;28;19909;-68
2023/10/10 05:27:11;;;;;;;;;;;21.20;62.80;;;;;;6268809;28;20460;-68
2023/10/10 05:30:23;;;;;;;;;;;21.10;62.80;;;;;;6251189;28;19909;-69
2023/10/10 05:33:26;;;;;;;;;;;21.20;64.50;;;;;;6245602;28;20359;-68
2023/10/10 05:36:28;;;;;;;;;;;21.20;63.40;;;;;;6257854;28;19947;-68
2023/10/10 05:39:37;;;;;;;;;;;21.30;63.70;;;;;;6268709;28;19919;-68
2023/10/10 05:42:39;;;;;;;;;;;21.30;63.10;;;;;;6246575;28;19917;-68
2023/10/10 05:45:39;;;;;;;;;;;21.40;62.90;;;;;;6269281;28;19904;-69
2023/10/10 05:48:41;;;;;;;;;;;21.40;63.70;;;;;;6273601;28;19970;-68
2023/10/10 05:51:41;;;;;;;;;;;21.40;63.50;;;;;;6246751;28;19952;-67
2023/10/10 05:54:42;;;;;;;;;;;21.30;63.70;;;;;;6266833;28;19905;-68
2023/10/10 05:57:43;;;;;;;;;;;21.30;63.90;;;;;;6257931;28;20000;-68
2023/10/10 06:00:44;;;;;;;;;;;21.20;63.50;;;;;;6265200;28;20340;-70
2023/10/10 06:03:45;;;;;;;;;;;21.20;63.60;;;;;;6262391;28;19908;-67
2023/10/10 06:06:46;;;;;;;;;;;21.20;64.00;;;;;;6274767;28;20637;-69
2023/10/10 06:09:51;;;;;;;;;;;21.20;63.90;;;;;;6259125;28;19928;-68
2023/10/10 06:12:52;;;;;;;;;;;21.10;64.00;;;;;;6273396;28;19966;-68
2023/10/10 06:15:52;;;;;;;;;;;21.10;64.20;;;;;;6254815;28;20437;-67
2023/10/10 06:18:53;;;;;;;;;;;21.10;64.10;;;;;;6263221;28;19905;-68
2023/10/10 06:21:59;;;;;;;;;;;21.10;63.30;;;;;;6254978;28;19933;-67
2023/10/10 06:25:00;;;;;;;;;;;21.10;64.00;;;;;;6265675;28;19916;-68
2023/10/10 06:28:00;;;;;;;;;;;21.10;63.90;;;;;;6277543;28;20402;-68
2023/10/10 06:31:02;;;;;;;;;;;21.10;63.30;;;;;;6248034;28;19960;-69
2023/10/10 06:34:19;;;;;;;;;;;21.10;63.70;;;;;;6281325;28;19932;-67
2023/10/10 06:37:26;;;;;;;;;;;21.10;63.40;;;;;;6238739;28;19920;-68
2023/10/10 06:40:30;;;;;;;;;;;21.10;63.70;;;;;;6255016;28;19959;-68
2023/10/10 06:43:33;;;;;;;;;;;21.10;63.10;;;;;;6264439;28;19913;-68
2023/10/10 06:46:37;;;;;;;;;;;21.10;63.60;;;;;;6263931;28;19979;-67
2023/10/10 06:49:43;;;;;;;;;;;21.10;63.60;;;;;;6249760;28;20401;-67
2023/10/10 06:52:44;;;;;;;;;;;21.10;63.50;;;;;;6247826;28;20308;-69
2023/10/10 06:55:45;;;;;;;;;;;21.10;63.70;;;;;;6258956;28;19956;-68
2023/10/10 06:58:45;;;;;;;;;;;21.10;63.30;;;;;;6254039;28;19908;-69
2023/10/10 07:01:46;;;;;;;;;;;21.10;63.20;;;;;;6259791;28;19908;-70
2023/10/10 07:04:53;;;;;;;;;;;21.10;62.80;;;;;;6284970;28;19951;-68
2023/10/10 07:08:00;;;;;;;;;;;21.10;63.20;;;;;;6254334;28;19969;-68
2023/10/10 07:11:01;;;;;;;;;;;21.10;63.30;;;;;;6262389;28;19909;-68
2023/10/10 07:14:07;;;;;;;;;;;21.10;62.90;;;;;;6246703;28;19905;-68
2023/10/10 07:17:13;;;;;;;;;;;21.10;63.50;;;;;;6267623;28;19911;-67
2023/10/10 07:23:15;;;;;;;;;;;21.10;63.40;;;;;;6278150;28;19955;-67
2023/10/10 07:26:23;;;;;;;;;;;21.10;63.10;;;;;;6256062;28;19908;-68
2023/10/10 07:29:27;;;;;;;;;;;21.10;63.20;;;;;;6275360;28;19909;-69
2023/10/10 07:32:28;;;;;;;;;;;21.10;63.60;;;;;;6251270;28;20376;-68
2023/10/10 07:35:28;;;;;;;;;;;21.10;63.20;;;;;;6262114;28;19961;-68
2023/10/10 07:38:30;;;;;;;;;;;21.10;63.50;;;;;;6295835;28;19904;-67
2023/10/10 07:41:33;;;;;;;;;;;21.10;62.70;;;;;;6283897;28;19920;-68
2023/10/10 07:44:35;;;;;;;;;;;21.10;62.80;;;;;;6294098;28;19912;-67
2023/10/10 07:48:37;;;;;;;;;;;21.10;62.80;;;;;;6275443;28;19911;-66
2023/10/10 07:51:05;;;;;;;;;;;21.10;63.10;;;;;;6290929;28;19905;-67
2023/10/10 07:54:12;;;;;;;;;;;21.10;63.30;;;;;;6272844;28;19904;-69
2023/10/10 07:57:22;;;;;;;;;;;21.10;63.00;;;;;;6270396;28;19905;-68
2023/10/10 08:00:34;;;;;;;;;;;21.10;63.60;;;;;;6242844;28;19905;-68
2023/10/10 08:03:35;;;;;;;;;;;21.10;63.70;;;;;;6247407;28;20385;-68
2023/10/10 08:06:38;;;;;;;;;;;21.10;62.90;;;;;;6254343;28;19908;-67
2023/10/10 08:09:39;;;;;;;;;;;21.10;63.70;;;;;;6262319;28;20279;-69
2023/10/10 08:12:40;;;;;;;;;;;21.10;63.60;;;;;;6272831;28;19905;-68
2023/10/10 08:15:56;;;;;;;;;;;21.10;63.70;;;;;;6260159;28;20360;-68
2023/10/10 08:19:04;;;;;;;;;;;21.10;63.00;;;;;;6280222;28;20323;-68
2023/10/10 08:22:12;;;;;;;;;;;21.10;63.30;;;;;;6267024;28;19913;-68
2023/10/10 08:25:12;;;;;;;;;;;21.10;62.90;;;;;;6283144;28;19999;-69
2023/10/10 08:28:13;;;;;;;;;;;21.10;62.90;;;;;;6261021;28;19905;-68
2023/10/10 08:31:15;;;;;;;;;;;21.10;63.60;;;;;;6256805;28;19940;-68
2023/10/10 08:34:15;;;;;;;;;;;21.10;63.60;;;;;;6253244;28;19953;-68
2023/10/10 08:37:16;;;;;;;;;;;21.10;63.40;;;;;;6261536;28;19905;-69
2023/10/10 08:40:19;;;;;;;;;;;21.10;62.80;;;;;;6260236;28;19951;-68
2023/10/10 08:43:21;;;;;;;;;;;21.10;62.80;;;;;;6268006;28;19941;-68
2023/10/10 08:46:25;;;;;;;;;;;21.10;63.80;;;;;;6253246;28;20456;-67
2023/10/10 08:49:27;;;;;;;;;;;21.10;63.00;;;;;;6281873;28;19905;-68
2023/10/10 08:52:32;;;;;;;;;;;21.10;63.10;;;;;;6272279;28;19913;-67
2023/10/10 08:55:34;;;;;;;;;;;21.10;63.60;;;;;;6250124;28;19912;-68
2023/10/10 08:58:35;;;;;;;;;;;21.10;63.10;;;;;;6253132;28;19909;-68
2023/10/10 09:01:38;;;;;;;;;;;21.10;63.00;;;;;;6255293;28;20367;-68
2023/10/10 09:04:39;;;;;;;;;;;21.10;62.80;;;;;;6257745;28;20011;-68
2023/10/10 09:07:43;;;;;;;;;;;21.10;63.80;;;;;;6268530;28;19910;-68
2023/10/10 09:10:45;;;;;;;;;;;21.10;63.70;;;;;;6261640;28;20050;-68
2023/10/10 09:13:51;;;;;;;;;;;21.10;63.60;;;;;;6271978;28;20003;-69
2023/10/10 09:16:52;;;;;;;;;;;21.00;63.60;;;;;;6283544;28;19912;-68
2023/10/10 09:19:52;;;;;;;;;;;21.10;63.70;;;;;;6286970;28;19962;-68
2023/10/10 09:23:04;;;;;;;;;;;21.10;63.30;;;;;;6257810;28;20297;-69
2023/10/10 09:29:34;;;;;;;;;;;21.10;64.00;;;;;;6267886;28;20274;-68
2023/10/10 09:32:36;;;;;;;;;;;21.00;63.70;;;;;;6257016;28;20282;-68
2023/10/10 09:35:39;;;;;;;;;;;21.00;62.80;;;;;;6272065;28;19905;-66
2023/10/10 09:38:46;;;;;;;;;;;21.00;63.80;;;;;;6262782;28;19954;-67
2023/10/10 09:42:07;;;;;;;;;;;21.00;62.90;;;;;;6277725;28;20396;-68
2023/10/10 09:45:26;;;;;;;;;;;21.00;62.70;;;;;;6249108;28;19955;-65
2023/10/10 10:01:22;;;;;;;;;;;21.00;63.40;;;;;;6270975;28;20353;-68
2023/10/10 10:04:25;;;;;;;;;;;21.00;63.50;;;;;;6257102;28;19913;-68
2023/10/10 10:07:25;;;;;;;;;;;21.00;63.30;;;;;;6261658;28;20363;-68
2023/10/10 10:10:47;;;;;;;;;;;21.00;63.60;;;;;;6299204;28;19909;-67
2023/10/10 10:13:57;;;;;;;;;;;21.00;63.90;;;;;;6276926;28;19905;-68
2023/10/10 10:17:12;;;;;;;;;;;21.00;63.90;;;;;;6284516;28;19905;-67
2023/10/10 10:20:22;;;;;;;;;;;21.00;63.80;;;;;;6274384;28;20117;-68
2023/10/10 10:23:26;;;;;;;;;;;21.00;63.50;;;;;;6274101;28;19908;-68
2023/10/10 10:26:42;;;;;;;;;;;21.00;63.80;;;;;;6284211;28;19958;-68
2023/10/10 10:29:48;;;;;;;;;;;21.00;63.10;;;;;;6249397;28;19905;-69
2023/10/10 10:32:54;;;;;;;;;;;21.00;63.80;;;;;;6280570;28;19905;-68
2023/10/10 10:35:58;;;;;;;;;;;21.00;64.10;;;;;;6274798;28;19912;-69
2023/10/10 10:39:19;;;;;;;;;;;21.00;63.80;;;;;;6231101;28;20376;-67
2023/10/10 10:42:22;;;;;;;;;;;21.00;63.90;;;;;;6261215;28;19916;-67
2023/10/10 10:45:26;;;;;;;;;;;21.00;63.50;;;;;;6268381;28;20013;-70
2023/10/10 10:48:29;;;;;;;;;;;21.00;62.90;;;;;;6258529;28;19990;-69
2023/10/10 10:51:41;;;;;;;;;;;21.00;63.60;;;;;;6263690;28;19960;-68
2023/10/10 10:54:50;;;;;;;;;;;21.00;63.00;;;;;;6278044;28;19913;-68
2023/10/10 10:58:05;;;;;;;;;;;21.00;64.00;;;;;;6272837;28;19904;-68
2023/10/10 11:01:16;;;;;;;;;;;21.00;63.00;;;;;;6258697;28;20385;-68
2023/10/10 11:04:42;;;;;;;;;;;21.00;62.90;;;;;;6264079;28;20435;-68
2023/10/10 11:07:47;;;;;;;;;;;21.00;63.40;;;;;;6258102;28;20385;-68
2023/10/10 11:10:47;;;;;;;;;;;21.00;63.80;;;;;;6238608;28;20283;-68
2023/10/10 11:13:49;;;;;;;;;;;21.00;63.30;;;;;;6256078;28;19905;-68
2023/10/10 11:16:56;;;;;;;;;;;21.00;63.20;;;;;;6247999;28;20002;-68
2023/10/10 11:19:57;;;;;;;;;;;21.00;63.40;;;;;;6264835;28;19912;-67
2023/10/10 11:23:14;;;;;;;;;;;21.00;63.90;;;;;;6294675;28;20374;-69
2023/10/10 11:26:15;;;;;;;;;;;21.00;63.70;;;;;;6261750;28;19909;-68
2023/10/10 11:29:29;;;;;;;;;;;21.00;63.90;;;;;;6243572;28;19905;-68
2023/10/10 11:32:36;;;;;;;;;;;21.00;63.40;;;;;;6269523;28;19912;-68
2023/10/10 11:35:37;;;;;;;;;;;21.00;63.50;;;;;;6257464;28;19912;-68
2023/10/10 11:38:39;;;;;;;;;;;21.00;63.00;;;;;;6268320;28;19905;-68
2023/10/10 11:41:40;;;;;;;;;;;21.00;63.80;;;;;;6253942;28;20352;-68
2023/10/10 11:44:41;;;;;;;;;;;21.00;63.00;;;;;;6253072;28;19919;-68
2023/10/10 11:47:43;;;;;;;;;;;21.00;63.10;;;;;;6235941;28;19909;-68
2023/10/10 11:50:45;;;;;;;;;;;21.00;63.90;;;;;;6247285;28;19909;-68
2023/10/10 11:53:46;;;;;;;;;;;21.00;63.70;;;;;;6256005;28;19916;-69
2023/10/10 11:56:47;;;;;;;;;;;21.00;63.30;;;;;;6237968;28;19905;-69
2023/10/10 11:59:47;;;;;;;;;;;21.00;63.50;;;;;;6236006;28;19905;-68
2023/10/10 12:02:51;;;;;;;;;;;21.00;63.40;;;;;;6241097;28;19909;-68
2023/10/10 12:05:51;;;;;;;;;;;21.00;63.00;;;;;;6235534;28;19916;-68
2023/10/10 12:08:53;;;;;;;;;;;21.00;62.90;;;;;;6232905;28;19906;-68
2023/10/10 12:12:03;;;;;;;;;;;21.00;62.90;;;;;;6239859;28;19909;-68
2023/10/10 12:15:04;;;;;;;;;;;21.00;62.90;;;;;;6272006;28;19950;-67
2023/10/10 12:18:11;;;;;;;;;;;21.00;63.30;;;;;;6270464;28;20379;-67
2023/10/10 12:21:19;;;;;;;;;;;21.00;63.80;;;;;;6270689;28;19929;-68
2023/10/10 12:24:19;;;;;;;;;;;21.00;63.00;;;;;;6267272;28;20427;-67
2023/10/10 12:27:29;;;;;;;;;;;21.00;63.40;;;;;;6229682;28;20040;-67
2023/10/10 12:30:30;;;;;;;;;;;21.00;63.80;;;;;;6255566;28;20000;-67
2023/10/10 12:33:31;;;;;;;;;;;21.00;63.20;;;;;;6246663;28;19909;-68
2023/10/10 12:36:33;;;;;;;;;;;21.00;63.30;;;;;;6240078;28;20047;-68
2023/10/10 12:39:33;;;;;;;;;;;21.00;63.80;;;;;;6243945;28;20284;-68
2023/10/10 12:42:34;;;;;;;;;;;21.00;63.60;;;;;;6246878;28;19928;-67
2023/10/10 12:45:34;;;;;;;;;;;21.00;64.10;;;;;;6249411;28;20452;-68
2023/10/10 12:48:46;;;;;;;;;;;21.00;63.70;;;;;;6238111;28;19909;-68
2023/10/10 12:51:46;;;;;;;;;;;21.00;64.20;;;;;;6250756;28;19905;-68
2023/10/10 12:54:56;;;;;;;;;;;21.00;64.30;;;;;;6238699;28;19928;-68
2023/10/10 12:57:58;;;;;;;;;;;21.00;63.60;;;;;;6252492;28;19905;-68
2023/10/10 13:00:59;;;;;;;;;;;21.00;63.60;;;;;;6236174;28;19904;-68
2023/10/10 13:04:07;;;;;;;;;;;21.00;64.00;;;;;;6244021;28;19909;-69
2023/10/10 13:07:08;;;;;;;;;;;21.00;63.70;;;;;;6239464;28;19909;-69
2023/10/10 13:10:13;;;;;;;;;;;21.00;64.30;;;;;;6236773;28;19905;-68
2023/10/10 13:13:26;;;;;;;;;;;21.00;64.30;;;;;;6265932;28;19905;-68
2023/10/10 13:19:45;;;;;;;;;;;21.00;64.20;;;;;;6248197;28;19916;-67
2023/10/10 13:22:50;;;;;;;;;;;21.00;64.20;;;;;;6256855;28;19913;-67
2023/10/10 13:25:51;;;;;;;;;;;21.00;64.10;;;;;;6248972;28;20398;-68
2023/10/10 13:28:51;;;;;;;;;;;21.00;64.30;;;;;;6240002;28;19908;-67
2023/10/10 13:31:52;;;;;;;;;;;21.00;64.20;;;;;;6235111;28;19916;-67
2023/10/10 13:34:53;;;;;;;;;;;21.00;64.30;;;;;;6233603;28;20362;-68
2023/10/10 13:37:53;;;;;;;;;;;21.00;63.80;;;;;;6235744;28;19905;-67
2023/10/10 13:40:54;;;;;;;;;;;21.00;64.10;;;;;;6238839;28;19948;-68
2023/10/10 13:43:59;;;;;;;;;;;21.00;64.20;;;;;;6271908;28;19912;-68
2023/10/10 13:47:00;;;;;;;;;;;21.00;64.30;;;;;;6255199;28;19915;-67
2023/10/10 13:50:28;;;;;;;;;;;21.00;64.30;;;;;;6261923;28;19995;-68
2023/10/10 13:53:21;;;;;;;;;;;21.00;64.30;;;;;;6267631;28;19905;-68
2023/10/10 13:56:22;;;;;;;;;;;21.00;64.30;;;;;;6275250;28;19912;-67
2023/10/10 13:59:24;;;;;;;;;;;21.00;64.50;;;;;;6251412;28;19950;-67
2023/10/10 14:02:31;;;;;;;;;;;21.00;64.40;;;;;;6270612;28;19908;-69
2023/10/10 14:05:34;;;;;;;;;;;21.00;64.30;;;;;;6238392;28;19912;-67
2023/10/10 14:08:34;;;;;;;;;;;21.00;64.40;;;;;;6268337;28;19943;-68
2023/10/10 14:11:35;;;;;;;;;;;21.00;64.40;;;;;;6266784;28;19905;-68
2023/10/10 14:14:36;;;;;;;;;;;21.00;64.30;;;;;;6258114;28;19909;-68
2023/10/10 14:17:37;;;;;;;;;;;21.00;64.20;;;;;;6257186;28;19905;-68
2023/10/10 14:20:38;;;;;;;;;;;21.00;64.50;;;;;;6262013;28;20372;-68
2023/10/10 14:23:39;;;;;;;;;;;21.00;64.20;;;;;;6273647;28;19908;-70
2023/10/10 14:26:45;;;;;;;;;;;21.00;63.50;;;;;;6256545;28;19955;-67
2023/10/10 14:29:45;;;;;;;;;;;21.00;64.30;;;;;;6288118;28;19905;-68
2023/10/10 14:32:47;;;;;;;;;;;21.00;64.30;;;;;;6267920;28;19905;-68
2023/10/10 14:35:47;;;;;;;;;;;21.00;64.30;;;;;;6276517;28;19905;-67
2023/10/10 14:38:52;;;;;;;;;;;21.00;64.50;;;;;;6262669;28;19912;-68
2023/10/10 14:41:52;;;;;;;;;;;21.00;64.50;;;;;;6236545;28;19967;-68
2023/10/10 14:44:53;;;;;;;;;;;21.00;64.50;;;;;;6250662;28;19917;-69
2023/10/10 14:47:55;;;;;;;;;;;21.00;64.20;;;;;;6241301;28;19959;-69
2023/10/10 14:50:57;;;;;;;;;;;20.90;64.30;;;;;;6241615;28;19909;-69
2023/10/10 14:53:57;;;;;;;;;;;21.00;63.30;;;;;;6246832;28;19927;-67
2023/10/10 14:56:58;;;;;;;;;;;21.00;64.30;;;;;;6247899;28;20360;-70
2023/10/10 14:59:58;;;;;;;;;;;21.00;63.70;;;;;;6232614;28;19923;-68
2023/10/10 15:02:59;;;;;;;;;;;21.00;64.50;;;;;;6238425;28;19917;-69
2023/10/10 15:06:06;;;;;;;;;;;20.90;64.30;;;;;;6253304;28;19909;-69
2023/10/10 15:09:06;;;;;;;;;;;21.00;64.10;;;;;;6263038;28;19999;-68
2023/10/10 15:12:08;;;;;;;;;;;21.00;64.30;;;;;;6256890;28;19911;-68
2023/10/10 15:15:09;;;;;;;;;;;20.90;64.10;;;;;;6246057;28;19973;-68
2023/10/10 15:18:10;;;;;;;;;;;21.00;63.50;;;;;;6241970;28;19968;-68
2023/10/10 15:21:12;;;;;;;;;;;21.00;64.10;;;;;;6254117;28;19909;-68
2023/10/10 15:24:12;;;;;;;;;;;21.00;64.50;;;;;;6258138;28;19924;-68
2023/10/10 15:27:13;;;;;;;;;;;21.00;64.50;;;;;;6255720;28;19909;-67
2023/10/10 15:30:15;;;;;;;;;;;20.90;64.40;;;;;;6235944;28;19905;-68
2023/10/10 15:33:18;;;;;;;;;;;20.90;64.50;;;;;;6253438;28;20449;-69
2023/10/10 15:36:19;;;;;;;;;;;20.90;64.30;;;;;;6239668;28;19932;-68
2023/10/10 15:39:22;;;;;;;;;;;21.00;64.30;;;;;;6258380;28;19912;-69
2023/10/10 15:42:23;;;;;;;;;;;21.00;64.30;;;;;;6278661;28;20033;-69
2023/10/10 15:45:23;;;;;;;;;;;21.00;64.40;;;;;;6296367;28;20391;-66
2023/10/10 15:48:25;;;;;;;;;;;20.90;64.30;;;;;;6275264;28;19904;-67
2023/10/10 15:51:27;;;;;;;;;;;20.90;64.40;;;;;;6272384;28;19955;-67
2023/10/10 15:54:33;;;;;;;;;;;20.90;64.20;;;;;;6293500;28;19961;-67
2023/10/10 15:57:35;;;;;;;;;;;20.90;64.30;;;;;;6288241;28;19919;-67
2023/10/10 16:00:37;;;;;;;;;;;21.00;64.40;;;;;;6272152;28;19905;-69
2023/10/10 16:03:51;;;;;;;;;;;20.90;64.30;;;;;;6277627;28;19916;-68
2023/10/10 16:06:52;;;;;;;;;;;20.90;64.30;;;;;;6272347;28;19916;-67
2023/10/10 16:09:52;;;;;;;;;;;20.90;63.40;;;;;;6279006;28;19905;-68
2023/10/10 16:12:53;;;;;;;;;;;21.00;63.90;;;;;;6257169;28;19975;-68
2023/10/10 16:15:56;;;;;;;;;;;21.00;63.90;;;;;;6269234;28;19940;-68
2023/10/10 16:18:57;;;;;;;;;;;21.00;64.50;;;;;;6259124;28;19909;-69
2023/10/10 16:22:01;;;;;;;;;;;20.90;64.30;;;;;;6253463;28;19923;-67
2023/10/10 16:25:02;;;;;;;;;;;20.90;64.50;;;;;;6269016;28;19963;-69
2023/10/10 16:28:04;;;;;;;;;;;20.90;64.30;;;;;;6272544;28;19904;-69
2023/10/10 16:31:10;;;;;;;;;;;20.90;63.40;;;;;;6254600;28;19915;-68
2023/10/10 16:34:11;;;;;;;;;;;21.00;63.70;;;;;;6249912;28;19905;-68
2023/10/10 16:37:13;;;;;;;;;;;21.00;64.00;;;;;;6265720;28;19908;-69
2023/10/10 16:40:17;;;;;;;;;;;20.90;63.90;;;;;;6242830;28;19905;-68
2023/10/10 16:43:18;;;;;;;;;;;20.90;64.30;;;;;;6263167;28;19912;-68
2023/10/10 16:46:18;;;;;;;;;;;20.90;64.60;;;;;;6264981;28;19967;-68
2023/10/10 16:49:20;;;;;;;;;;;20.90;64.40;;;;;;6267932;28;20446;-65
2023/10/10 16:52:25;;;;;;;;;;;20.90;63.70;;;;;;6256149;28;20460;-69
2023/10/10 16:55:26;;;;;;;;;;;21.00;63.50;;;;;;6260695;28;19924;-66
2023/10/10 16:58:27;;;;;;;;;;;21.00;64.40;;;;;;6260418;28;19940;-66
2023/10/10 17:01:28;;;;;;;;;;;20.90;64.50;;;;;;6257953;28;20501;-67
2023/10/10 17:04:28;;;;;;;;;;;20.90;64.50;;;;;;6259871;28;19920;-68
2023/10/10 17:07:29;;;;;;;;;;;20.90;64.50;;;;;;6247015;28;19912;-68
2023/10/10 17:10:32;;;;;;;;;;;20.90;64.50;;;;;;6241077;28;19905;-69
2023/10/10 17:13:38;;;;;;;;;;;20.90;64.40;;;;;;6246255;28;20382;-68
2023/10/10 17:16:39;;;;;;;;;;;20.90;64.10;;;;;;6252034;28;19905;-70
2023/10/10 17:19:40;;;;;;;;;;;21.00;64.30;;;;;;6262859;28;19905;-69
2023/10/10 17:22:45;;;;;;;;;;;21.00;64.50;;;;;;6268477;28;20450;-68
2023/10/10 17:25:46;;;;;;;;;;;21.00;64.50;;;;;;6264839;28;19904;-68
2023/10/10 17:28:54;;;;;;;;;;;20.90;64.30;;;;;;6230340;28;19912;-68
2023/10/10 17:31:54;;;;;;;;;;;20.90;64.40;;;;;;6264361;28;19944;-69
2023/10/10 17:34:55;;;;;;;;;;;20.90;64.50;;;;;;6270924;28;19912;-68
2023/10/10 17:37:56;;;;;;;;;;;20.90;64.50;;;;;;6259814;28;19904;-67
2023/10/10 17:41:03;;;;;;;;;;;20.90;63.90;;;;;;6275042;28;20322;-68
2023/10/10 17:44:08;;;;;;;;;;;20.90;64.40;;;;;;6267159;28;20394;-68
2023/10/10 17:47:09;;;;;;;;;;;20.90;64.20;;;;;;6249120;28;19908;-68
2023/10/10 17:50:10;;;;;;;;;;;21.00;63.50;;;;;;6262227;28;19955;-69
2023/10/10 17:53:14;;;;;;;;;;;21.00;63.90;;;;;;6267455;28;20427;-69
2023/10/10 17:56:15;;;;;;;;;;;20.90;64.00;;;;;;6256980;28;19904;-69
2023/10/10 17:59:18;;;;;;;;;;;21.00;63.60;;;;;;6249804;28;19905;-69
2023/10/10 18:02:22;;;;;;;;;;;21.00;64.10;;;;;;6284931;28;19908;-69
2023/10/10 18:05:24;;;;;;;;;;;21.00;63.40;;;;;;6282688;28;19905;-69
2023/10/10 18:08:26;;;;;;;;;;;21.00;63.50;;;;;;6276441;28;19916;-69
2023/10/10 18:11:31;;;;;;;;;;;21.00;63.40;;;;;;6276695;28;19913;-69
2023/10/10 18:14:32;;;;;;;;;;;21.00;64.10;;;;;;6261601;28;19909;-69
2023/10/10 18:17:34;;;;;;;;;;;21.00;64.50;;;;;;6265159;28;19911;-69
2023/10/10 18:20:40;;;;;;;;;;;20.90;64.50;;;;;;6279965;28;19996;-69
2023/10/10 18:23:41;;;;;;;;;;;20.90;64.60;;;;;;6266530;28;19908;-69
2023/10/10 18:26:42;;;;;;;;;;;20.90;64.50;;;;;;6281579;28;20399;-69
2023/10/10 18:29:42;;;;;;;;;;;21.00;64.00;;;;;;6269826;28;19905;-69
2023/10/10 18:32:43;;;;;;;;;;;20.90;64.40;;;;;;6266394;28;20414;-70
2023/10/10 18:35:46;;;;;;;;;;;20.90;64.30;;;;;;6243350;28;20011;-69
2023/10/10 18:38:48;;;;;;;;;;;20.90;64.60;;;;;;6267070;28;20715;-69
2023/10/10 18:41:48;;;;;;;;;;;20.90;64.60;;;;;;6252932;28;19917;-69
2023/10/10 18:44:49;;;;;;;;;;;21.00;64.20;;;;;;6243039;28;20375;-69
2023/10/10 18:47:49;;;;;;;;;;;20.90;64.50;;;;;;6252419;28;20023;-69
2023/10/10 18:50:50;;;;;;;;;;;20.90;64.50;;;;;;6251852;28;20383;-68
2023/10/10 18:53:51;;;;;;;;;;;20.90;63.50;;;;;;6250755;28;19944;-69
2023/10/10 18:56:52;;;;;;;;;;;21.00;64.70;;;;;;6242243;28;19916;-69
2023/10/10 18:59:52;;;;;;;;;;;21.00;63.70;;;;;;6253164;28;19948;-69
2023/10/10 19:02:56;;;;;;;;;;;21.00;64.50;;;;;;6256293;28;20375;-69
2023/10/10 19:05:56;;;;;;;;;;;20.90;63.40;;;;;;6246850;28;19955;-69
2023/10/10 19:08:59;;;;;;;;;;;21.00;63.70;;;;;;6245598;28;19905;-68
2023/10/10 19:12:00;;;;;;;;;;;20.90;63.90;;;;;;6260358;28;19999;-69
2023/10/10 19:15:01;;;;;;;;;;;21.00;63.70;;;;;;6243380;28;20364;-69
2023/10/10 19:18:03;;;;;;;;;;;21.00;64.10;;;;;;6230747;28;20280;-70
2023/10/10 19:21:12;;;;;;;;;;;21.00;64.50;;;;;;6254025;28;19904;-69
2023/10/10 19:24:14;;;;;;;;;;;20.90;63.80;;;;;;6244708;28;19917;-69
2023/10/10 19:27:16;;;;;;;;;;;21.00;63.50;;;;;;6233186;28;19904;-69
2023/10/10 19:30:16;;;;;;;;;;;20.90;63.50;;;;;;6243533;28;20010;-69
2023/10/10 19:33:17;;;;;;;;;;;21.00;63.50;;;;;;6245037;28;19913;-69
2023/10/10 19:36:19;;;;;;;;;;;21.00;63.70;;;;;;6252602;28;19948;-69
2023/10/10 19:39:22;;;;;;;;;;;21.00;64.30;;;;;;6253769;28;19959;-69
2023/10/10 19:42:25;;;;;;;;;;;21.00;64.10;;;;;;6258257;28;20442;-69
2023/10/10 19:45:29;;;;;;;;;;;21.00;63.50;;;;;;6267502;28;19908;-69
2023/10/10 19:48:29;;;;;;;;;;;21.00;64.50;;;;;;6271821;28;19908;-70
2023/10/10 19:51:31;;;;;;;;;;;20.90;63.90;;;;;;6269873;28;19947;-68
2023/10/10 19:54:34;;;;;;;;;;;20.90;64.50;;;;;;6262836;28;19943;-69
2023/10/10 19:57:35;;;;;;;;;;;20.90;64.60;;;;;;6272618;28;19905;-69
2023/10/10 20:00:39;;;;;;;;;;;20.90;63.80;;;;;;6277395;28;20002;-68
2023/10/10 20:03:42;;;;;;;;;;;20.90;64.40;;;;;;6268251;28;20004;-69
2023/10/10 20:06:46;;;;;;;;;;;20.90;63.70;;;;;;6288303;28;19912;-69